sensor_id;sensor_type;location;lat;lon;timestamp;P1;durP1;ratioP1;P2;durP2;ratioP2
71038;SDS011;58692;43.212;27.908;2022-12-11T00:01:21;19.37;;;7.30;;
71038;SDS011;58692;43.212;27.908;2022-12-11T00:03:47;23.17;;;6.90;;
71038;SDS011;58692;43.212;27.908;2022-12-11T00:06:14;19.83;;;6.93;;
71038;SDS011;58692;43.212;27.908;2022-12-11T00:08:42;24.17;;;7.32;;
71038;SDS011;58692;43.212;27.908;2022-12-11T00:11:08;20.75;;;7.15;;
71038;SDS011;58692;43.212;27.908;2022-12-11T00:13:36;18.33;;;6.93;;
71038;SDS011;58692;43.212;27.908;2022-12-11T00:16:02;20.85;;;7.10;;
71038;SDS011;58692;43.212;27.908;2022-12-11T00:18:28;22.20;;;6.80;;
71038;SDS011;58692;43.212;27.908;2022-12-11T00:20:53;22.40;;;7.00;;
71038;SDS011;58692;43.212;27.908;2022-12-11T00:23:19;21.70;;;7.10;;
71038;SDS011;58692;43.212;27.908;2022-12-11T00:25:45;22.63;;;7.30;;
71038;SDS011;58692;43.212;27.908;2022-12-11T00:28:12;23.15;;;7.28;;
71038;SDS011;58692;43.212;27.908;2022-12-11T00:30:40;22.70;;;6.77;;
71038;SDS011;58692;43.212;27.908;2022-12-11T00:33:06;22.50;;;7.40;;
71038;SDS011;58692;43.212;27.908;2022-12-11T00:35:32;21.75;;;7.20;;
71038;SDS011;58692;43.212;27.908;2022-12-11T00:37:58;19.33;;;7.50;;
71038;SDS011;58692;43.212;27.908;2022-12-11T00:40:23;18.40;;;7.40;;
71038;SDS011;58692;43.212;27.908;2022-12-11T00:42:49;23.27;;;8.77;;
71038;SDS011;58692;43.212;27.908;2022-12-11T00:45:14;19.63;;;7.73;;
71038;SDS011;58692;43.212;27.908;2022-12-11T00:47:40;26.02;;;8.43;;
71038;SDS011;58692;43.212;27.908;2022-12-11T00:50:05;24.30;;;8.33;;
71038;SDS011;58692;43.212;27.908;2022-12-11T00:52:31;24.05;;;8.18;;
71038;SDS011;58692;43.212;27.908;2022-12-11T00:54:57;20.43;;;8.80;;
71038;SDS011;58692;43.212;27.908;2022-12-11T00:57:22;20.25;;;8.48;;
71038;SDS011;58692;43.212;27.908;2022-12-11T00:59:48;20.07;;;8.93;;
71038;SDS011;58692;43.212;27.908;2022-12-11T01:02:13;21.03;;;9.90;;
71038;SDS011;58692;43.212;27.908;2022-12-11T01:04:39;22.03;;;9.97;;
71038;SDS011;58692;43.212;27.908;2022-12-11T01:07:04;23.17;;;9.02;;
71038;SDS011;58692;43.212;27.908;2022-12-11T01:09:30;23.17;;;9.97;;
71038;SDS011;58692;43.212;27.908;2022-12-11T01:12:10;23.58;;;10.48;;
71038;SDS011;58692;43.212;27.908;2022-12-11T01:14:36;29.87;;;10.53;;
71038;SDS011;58692;43.212;27.908;2022-12-11T01:17:01;23.53;;;10.53;;
71038;SDS011;58692;43.212;27.908;2022-12-11T01:19:27;22.60;;;10.40;;
71038;SDS011;58692;43.212;27.908;2022-12-11T01:21:53;24.87;;;10.27;;
71038;SDS011;58692;43.212;27.908;2022-12-11T01:24:18;29.48;;;10.32;;
71038;SDS011;58692;43.212;27.908;2022-12-11T01:26:43;27.03;;;10.77;;
71038;SDS011;58692;43.212;27.908;2022-12-11T01:29:09;23.93;;;10.33;;
71038;SDS011;58692;43.212;27.908;2022-12-11T01:31:35;22.73;;;10.55;;
71038;SDS011;58692;43.212;27.908;2022-12-11T01:34:01;23.65;;;10.30;;
71038;SDS011;58692;43.212;27.908;2022-12-11T01:36:27;26.47;;;11.40;;
71038;SDS011;58692;43.212;27.908;2022-12-11T01:38:53;26.48;;;10.40;;
71038;SDS011;58692;43.212;27.908;2022-12-11T01:41:18;23.73;;;10.60;;
71038;SDS011;58692;43.212;27.908;2022-12-11T01:46:27;26.70;;;9.33;;
71038;SDS011;58692;43.212;27.908;2022-12-11T01:48:54;22.38;;;10.48;;
71038;SDS011;58692;43.212;27.908;2022-12-11T01:51:21;19.58;;;9.88;;
71038;SDS011;58692;43.212;27.908;2022-12-11T01:53:50;21.48;;;9.85;;
71038;SDS011;58692;43.212;27.908;2022-12-11T01:56:20;25.35;;;9.90;;
71038;SDS011;58692;43.212;27.908;2022-12-11T01:58:46;30.07;;;10.40;;
71038;SDS011;58692;43.212;27.908;2022-12-11T02:01:21;22.00;;;10.32;;
71038;SDS011;58692;43.212;27.908;2022-12-11T02:03:52;28.02;;;11.07;;
71038;SDS011;58692;43.212;27.908;2022-12-11T02:09:03;27.40;;;10.77;;
71038;SDS011;58692;43.212;27.908;2022-12-11T02:11:34;21.17;;;9.43;;
71038;SDS011;58692;43.212;27.908;2022-12-11T02:14:12;24.48;;;10.80;;
71038;SDS011;58692;43.212;27.908;2022-12-11T02:16:56;23.17;;;10.48;;
71038;SDS011;58692;43.212;27.908;2022-12-11T02:19:33;25.42;;;11.50;;
71038;SDS011;58692;43.212;27.908;2022-12-11T02:22:12;30.33;;;12.10;;
71038;SDS011;58692;43.212;27.908;2022-12-11T02:24:52;24.17;;;10.90;;
71038;SDS011;58692;43.212;27.908;2022-12-11T02:27:29;29.30;;;11.73;;
71038;SDS011;58692;43.212;27.908;2022-12-11T02:30:03;27.75;;;11.18;;
71038;SDS011;58692;43.212;27.908;2022-12-11T02:32:36;27.10;;;11.75;;
71038;SDS011;58692;43.212;27.908;2022-12-11T02:37:30;25.42;;;11.52;;
71038;SDS011;58692;43.212;27.908;2022-12-11T02:39:59;33.00;;;12.13;;
71038;SDS011;58692;43.212;27.908;2022-12-11T02:42:29;32.53;;;12.30;;
71038;SDS011;58692;43.212;27.908;2022-12-11T02:44:58;29.63;;;10.85;;
71038;SDS011;58692;43.212;27.908;2022-12-11T02:47:25;26.98;;;11.35;;
71038;SDS011;58692;43.212;27.908;2022-12-11T02:49:53;24.77;;;10.80;;
71038;SDS011;58692;43.212;27.908;2022-12-11T02:52:20;25.77;;;10.63;;
71038;SDS011;58692;43.212;27.908;2022-12-11T02:54:49;30.13;;;11.83;;
71038;SDS011;58692;43.212;27.908;2022-12-11T02:57:21;27.73;;;11.02;;
71038;SDS011;58692;43.212;27.908;2022-12-11T02:59:51;23.40;;;10.07;;
71038;SDS011;58692;43.212;27.908;2022-12-11T03:02:17;23.57;;;10.53;;
71038;SDS011;58692;43.212;27.908;2022-12-11T03:04:43;28.88;;;11.02;;
71038;SDS011;58692;43.212;27.908;2022-12-11T03:07:11;30.23;;;10.10;;
71038;SDS011;58692;43.212;27.908;2022-12-11T03:09:41;24.57;;;10.53;;
71038;SDS011;58692;43.212;27.908;2022-12-11T03:12:09;25.00;;;9.82;;
71038;SDS011;58692;43.212;27.908;2022-12-11T03:14:36;26.50;;;10.32;;
71038;SDS011;58692;43.212;27.908;2022-12-11T03:17:09;33.00;;;11.32;;
71038;SDS011;58692;43.212;27.908;2022-12-11T03:19:40;25.92;;;10.75;;
71038;SDS011;58692;43.212;27.908;2022-12-11T03:22:15;26.83;;;10.70;;
71038;SDS011;58692;43.212;27.908;2022-12-11T03:24:50;27.75;;;9.93;;
71038;SDS011;58692;43.212;27.908;2022-12-11T03:30:07;24.48;;;10.52;;
71038;SDS011;58692;43.212;27.908;2022-12-11T03:32:43;27.55;;;10.13;;
71038;SDS011;58692;43.212;27.908;2022-12-11T03:35:31;27.20;;;10.77;;
71038;SDS011;58692;43.212;27.908;2022-12-11T03:38:00;26.27;;;10.80;;
71038;SDS011;58692;43.212;27.908;2022-12-11T03:40:31;34.30;;;11.50;;
71038;SDS011;58692;43.212;27.908;2022-12-11T03:42:59;32.30;;;10.43;;
71038;SDS011;58692;43.212;27.908;2022-12-11T03:45:26;28.60;;;9.25;;
71038;SDS011;58692;43.212;27.908;2022-12-11T03:47:54;26.30;;;9.70;;
71038;SDS011;58692;43.212;27.908;2022-12-11T03:50:21;25.67;;;9.45;;
71038;SDS011;58692;43.212;27.908;2022-12-11T03:52:48;27.20;;;9.77;;
71038;SDS011;58692;43.212;27.908;2022-12-11T03:55:15;23.67;;;9.13;;
71038;SDS011;58692;43.212;27.908;2022-12-11T03:57:43;21.38;;;9.18;;
71038;SDS011;58692;43.212;27.908;2022-12-11T04:00:10;22.67;;;9.80;;
71038;SDS011;58692;43.212;27.908;2022-12-11T04:02:38;22.42;;;9.35;;
71038;SDS011;58692;43.212;27.908;2022-12-11T04:05:04;24.80;;;9.57;;
71038;SDS011;58692;43.212;27.908;2022-12-11T04:07:30;24.23;;;9.02;;
71038;SDS011;58692;43.212;27.908;2022-12-11T04:09:56;22.17;;;9.00;;
71038;SDS011;58692;43.212;27.908;2022-12-11T04:12:21;23.73;;;9.47;;
71038;SDS011;58692;43.212;27.908;2022-12-11T04:14:47;26.13;;;9.75;;
71038;SDS011;58692;43.212;27.908;2022-12-11T04:17:29;24.77;;;9.60;;
71038;SDS011;58692;43.212;27.908;2022-12-11T04:20:12;23.47;;;9.10;;
71038;SDS011;58692;43.212;27.908;2022-12-11T04:22:53;22.95;;;8.65;;
71038;SDS011;58692;43.212;27.908;2022-12-11T04:25:34;28.80;;;9.27;;
71038;SDS011;58692;43.212;27.908;2022-12-11T04:28:00;27.07;;;9.43;;
71038;SDS011;58692;43.212;27.908;2022-12-11T04:30:25;24.80;;;9.63;;
71038;SDS011;58692;43.212;27.908;2022-12-11T04:32:51;23.80;;;9.43;;
71038;SDS011;58692;43.212;27.908;2022-12-11T04:35:19;23.15;;;9.75;;
71038;SDS011;58692;43.212;27.908;2022-12-11T04:37:45;24.73;;;8.90;;
71038;SDS011;58692;43.212;27.908;2022-12-11T04:40:12;24.63;;;9.23;;
71038;SDS011;58692;43.212;27.908;2022-12-11T04:42:39;27.45;;;9.68;;
71038;SDS011;58692;43.212;27.908;2022-12-11T04:45:05;22.63;;;8.40;;
71038;SDS011;58692;43.212;27.908;2022-12-11T04:47:33;23.23;;;8.70;;
71038;SDS011;58692;43.212;27.908;2022-12-11T04:49:59;25.85;;;9.25;;
71038;SDS011;58692;43.212;27.908;2022-12-11T04:52:27;28.13;;;9.80;;
71038;SDS011;58692;43.212;27.908;2022-12-11T04:54:52;23.33;;;10.03;;
71038;SDS011;58692;43.212;27.908;2022-12-11T04:57:18;24.50;;;9.77;;
71038;SDS011;58692;43.212;27.908;2022-12-11T04:59:45;19.85;;;9.85;;
71038;SDS011;58692;43.212;27.908;2022-12-11T05:02:11;25.02;;;9.35;;
71038;SDS011;58692;43.212;27.908;2022-12-11T05:04:36;22.67;;;9.20;;
71038;SDS011;58692;43.212;27.908;2022-12-11T05:07:02;29.00;;;9.85;;
71038;SDS011;58692;43.212;27.908;2022-12-11T05:09:28;23.33;;;9.37;;
71038;SDS011;58692;43.212;27.908;2022-12-11T05:11:54;22.67;;;9.00;;
71038;SDS011;58692;43.212;27.908;2022-12-11T05:14:20;23.37;;;9.07;;
71038;SDS011;58692;43.212;27.908;2022-12-11T05:16:45;25.15;;;9.32;;
71038;SDS011;58692;43.212;27.908;2022-12-11T05:19:11;29.10;;;10.10;;
71038;SDS011;58692;43.212;27.908;2022-12-11T05:21:36;23.23;;;8.97;;
71038;SDS011;58692;43.212;27.908;2022-12-11T05:24:02;20.77;;;8.63;;
71038;SDS011;58692;43.212;27.908;2022-12-11T05:26:28;21.90;;;9.03;;
71038;SDS011;58692;43.212;27.908;2022-12-11T05:28:53;23.67;;;9.23;;
71038;SDS011;58692;43.212;27.908;2022-12-11T05:31:21;24.47;;;9.27;;
71038;SDS011;58692;43.212;27.908;2022-12-11T05:33:48;25.00;;;9.75;;
71038;SDS011;58692;43.212;27.908;2022-12-11T05:36:16;23.55;;;8.90;;
71038;SDS011;58692;43.212;27.908;2022-12-11T05:38:45;18.83;;;8.45;;
71038;SDS011;58692;43.212;27.908;2022-12-11T05:41:12;21.40;;;8.30;;
71038;SDS011;58692;43.212;27.908;2022-12-11T05:43:39;21.27;;;8.23;;
71038;SDS011;58692;43.212;27.908;2022-12-11T05:48:33;19.30;;;7.70;;
71038;SDS011;58692;43.212;27.908;2022-12-11T05:50:59;18.27;;;7.72;;
71038;SDS011;58692;43.212;27.908;2022-12-11T05:53:26;22.40;;;8.35;;
71038;SDS011;58692;43.212;27.908;2022-12-11T05:55:52;25.90;;;8.10;;
71038;SDS011;58692;43.212;27.908;2022-12-11T05:58:18;20.17;;;7.57;;
71038;SDS011;58692;43.212;27.908;2022-12-11T06:00:45;19.52;;;7.80;;
71038;SDS011;58692;43.212;27.908;2022-12-11T06:03:11;20.57;;;7.63;;
71038;SDS011;58692;43.212;27.908;2022-12-11T06:05:38;23.75;;;8.68;;
71038;SDS011;58692;43.212;27.908;2022-12-11T06:08:04;21.27;;;7.97;;
71038;SDS011;58692;43.212;27.908;2022-12-11T06:10:30;21.05;;;7.93;;
71038;SDS011;58692;43.212;27.908;2022-12-11T06:12:55;19.50;;;7.80;;
71038;SDS011;58692;43.212;27.908;2022-12-11T06:15:21;17.33;;;7.80;;
71038;SDS011;58692;43.212;27.908;2022-12-11T06:17:46;25.27;;;8.07;;
71038;SDS011;58692;43.212;27.908;2022-12-11T06:20:12;21.03;;;8.10;;
71038;SDS011;58692;43.212;27.908;2022-12-11T06:22:37;23.13;;;7.73;;
71038;SDS011;58692;43.212;27.908;2022-12-11T06:25:03;22.58;;;8.80;;
71038;SDS011;58692;43.212;27.908;2022-12-11T06:27:29;16.97;;;7.97;;
71038;SDS011;58692;43.212;27.908;2022-12-11T06:29:55;20.02;;;7.32;;
71038;SDS011;58692;43.212;27.908;2022-12-11T06:32:20;20.30;;;7.97;;
71038;SDS011;58692;43.212;27.908;2022-12-11T06:34:46;20.27;;;7.95;;
71038;SDS011;58692;43.212;27.908;2022-12-11T06:37:12;19.40;;;7.28;;
71038;SDS011;58692;43.212;27.908;2022-12-11T06:39:37;22.57;;;7.53;;
71038;SDS011;58692;43.212;27.908;2022-12-11T06:42:03;21.73;;;7.03;;
71038;SDS011;58692;43.212;27.908;2022-12-11T06:44:28;23.35;;;8.10;;
71038;SDS011;58692;43.212;27.908;2022-12-11T06:46:54;21.47;;;6.43;;
71038;SDS011;58692;43.212;27.908;2022-12-11T06:49:19;20.57;;;7.60;;
71038;SDS011;58692;43.212;27.908;2022-12-11T06:51:45;25.52;;;6.60;;
71038;SDS011;58692;43.212;27.908;2022-12-11T06:54:11;19.57;;;6.37;;
71038;SDS011;58692;43.212;27.908;2022-12-11T06:56:36;16.10;;;6.88;;
71038;SDS011;58692;43.212;27.908;2022-12-11T06:59:02;18.10;;;6.77;;
71038;SDS011;58692;43.212;27.908;2022-12-11T07:01:30;23.10;;;7.07;;
71038;SDS011;58692;43.212;27.908;2022-12-11T07:03:56;18.23;;;5.78;;
71038;SDS011;58692;43.212;27.908;2022-12-11T07:06:23;23.38;;;6.20;;
71038;SDS011;58692;43.212;27.908;2022-12-11T07:08:50;21.33;;;6.95;;
71038;SDS011;58692;43.212;27.908;2022-12-11T07:11:17;22.50;;;6.55;;
71038;SDS011;58692;43.212;27.908;2022-12-11T07:13:44;20.43;;;6.37;;
71038;SDS011;58692;43.212;27.908;2022-12-11T07:16:10;21.55;;;5.95;;
71038;SDS011;58692;43.212;27.908;2022-12-11T07:18:37;20.50;;;6.10;;
71038;SDS011;58692;43.212;27.908;2022-12-11T07:21:04;18.98;;;5.88;;
71038;SDS011;58692;43.212;27.908;2022-12-11T07:23:30;18.90;;;6.73;;
71038;SDS011;58692;43.212;27.908;2022-12-11T07:25:57;20.58;;;6.72;;
71038;SDS011;58692;43.212;27.908;2022-12-11T07:28:23;18.90;;;6.50;;
71038;SDS011;58692;43.212;27.908;2022-12-11T07:30:50;23.38;;;7.18;;
71038;SDS011;58692;43.212;27.908;2022-12-11T07:33:15;17.53;;;5.90;;
71038;SDS011;58692;43.212;27.908;2022-12-11T07:35:41;14.90;;;6.17;;
71038;SDS011;58692;43.212;27.908;2022-12-11T07:38:07;19.10;;;6.60;;
71038;SDS011;58692;43.212;27.908;2022-12-11T07:40:33;16.55;;;6.20;;
71038;SDS011;58692;43.212;27.908;2022-12-11T07:42:58;18.15;;;6.22;;
71038;SDS011;58692;43.212;27.908;2022-12-11T07:45:25;18.10;;;5.83;;
71038;SDS011;58692;43.212;27.908;2022-12-11T07:47:51;20.17;;;6.47;;
71038;SDS011;58692;43.212;27.908;2022-12-11T07:50:16;16.65;;;6.32;;
71038;SDS011;58692;43.212;27.908;2022-12-11T07:52:42;15.13;;;5.63;;
71038;SDS011;58692;43.212;27.908;2022-12-11T07:55:08;15.93;;;5.38;;
71038;SDS011;58692;43.212;27.908;2022-12-11T07:57:35;17.40;;;5.50;;
71038;SDS011;58692;43.212;27.908;2022-12-11T08:00:00;16.58;;;5.60;;
71038;SDS011;58692;43.212;27.908;2022-12-11T08:02:26;17.63;;;5.70;;
71038;SDS011;58692;43.212;27.908;2022-12-11T08:04:52;15.45;;;4.97;;
71038;SDS011;58692;43.212;27.908;2022-12-11T08:07:17;14.63;;;4.47;;
71038;SDS011;58692;43.212;27.908;2022-12-11T08:09:43;17.65;;;4.75;;
71038;SDS011;58692;43.212;27.908;2022-12-11T08:12:08;15.27;;;5.17;;
71038;SDS011;58692;43.212;27.908;2022-12-11T08:14:34;16.75;;;4.75;;
71038;SDS011;58692;43.212;27.908;2022-12-11T08:17:00;16.00;;;4.93;;
71038;SDS011;58692;43.212;27.908;2022-12-11T08:19:26;13.27;;;5.10;;
71038;SDS011;58692;43.212;27.908;2022-12-11T08:21:54;14.13;;;4.63;;
71038;SDS011;58692;43.212;27.908;2022-12-11T08:24:20;15.27;;;5.05;;
71038;SDS011;58692;43.212;27.908;2022-12-11T08:26:46;15.20;;;4.93;;
71038;SDS011;58692;43.212;27.908;2022-12-11T08:29:12;15.37;;;5.30;;
71038;SDS011;58692;43.212;27.908;2022-12-11T08:31:40;16.08;;;5.53;;
71038;SDS011;58692;43.212;27.908;2022-12-11T08:34:06;15.68;;;5.22;;
71038;SDS011;58692;43.212;27.908;2022-12-11T08:36:31;16.93;;;5.10;;
71038;SDS011;58692;43.212;27.908;2022-12-11T08:38:57;11.53;;;3.70;;
71038;SDS011;58692;43.212;27.908;2022-12-11T08:41:26;13.32;;;4.13;;
71038;SDS011;58692;43.212;27.908;2022-12-11T08:43:54;12.38;;;3.65;;
71038;SDS011;58692;43.212;27.908;2022-12-11T08:46:22;14.77;;;3.92;;
71038;SDS011;58692;43.212;27.908;2022-12-11T08:48:50;23.43;;;8.13;;
71038;SDS011;58692;43.212;27.908;2022-12-11T08:51:18;16.58;;;4.78;;
71038;SDS011;58692;43.212;27.908;2022-12-11T08:53:46;13.65;;;3.67;;
71038;SDS011;58692;43.212;27.908;2022-12-11T08:56:14;10.75;;;3.40;;
71038;SDS011;58692;43.212;27.908;2022-12-11T08:58:41;13.90;;;3.20;;
71038;SDS011;58692;43.212;27.908;2022-12-11T09:01:10;11.00;;;3.63;;
71038;SDS011;58692;43.212;27.908;2022-12-11T09:03:38;11.32;;;3.50;;
71038;SDS011;58692;43.212;27.908;2022-12-11T09:06:05;12.73;;;3.30;;
71038;SDS011;58692;43.212;27.908;2022-12-11T09:08:32;13.20;;;3.20;;
71038;SDS011;58692;43.212;27.908;2022-12-11T09:11:06;12.35;;;2.95;;
71038;SDS011;58692;43.212;27.908;2022-12-11T09:13:36;11.10;;;3.27;;
71038;SDS011;58692;43.212;27.908;2022-12-11T09:16:03;11.38;;;2.97;;
71038;SDS011;58692;43.212;27.908;2022-12-11T09:18:31;13.63;;;3.20;;
71038;SDS011;58692;43.212;27.908;2022-12-11T09:20:58;15.25;;;3.60;;
71038;SDS011;58692;43.212;27.908;2022-12-11T09:23:28;10.93;;;2.92;;
71038;SDS011;58692;43.212;27.908;2022-12-11T09:25:54;11.43;;;3.00;;
71038;SDS011;58692;43.212;27.908;2022-12-11T09:28:20;11.60;;;2.85;;
71038;SDS011;58692;43.212;27.908;2022-12-11T09:30:46;10.60;;;3.55;;
71038;SDS011;58692;43.212;27.908;2022-12-11T09:33:11;15.33;;;3.30;;
71038;SDS011;58692;43.212;27.908;2022-12-11T09:35:37;13.90;;;3.00;;
71038;SDS011;58692;43.212;27.908;2022-12-11T09:38:03;11.88;;;3.05;;
71038;SDS011;58692;43.212;27.908;2022-12-11T09:40:28;13.67;;;3.30;;
71038;SDS011;58692;43.212;27.908;2022-12-11T09:42:57;9.25;;;2.92;;
71038;SDS011;58692;43.212;27.908;2022-12-11T09:45:31;12.93;;;3.10;;
71038;SDS011;58692;43.212;27.908;2022-12-11T09:47:57;12.80;;;3.10;;
71038;SDS011;58692;43.212;27.908;2022-12-11T09:50:26;10.93;;;3.15;;
71038;SDS011;58692;43.212;27.908;2022-12-11T09:55:24;12.00;;;2.80;;
71038;SDS011;58692;43.212;27.908;2022-12-11T10:00:43;12.57;;;3.22;;
71038;SDS011;58692;43.212;27.908;2022-12-11T10:03:24;16.00;;;2.85;;
71038;SDS011;58692;43.212;27.908;2022-12-11T10:06:08;10.23;;;3.13;;
71038;SDS011;58692;43.212;27.908;2022-12-11T10:11:41;12.00;;;3.17;;
71038;SDS011;58692;43.212;27.908;2022-12-11T10:14:18;13.23;;;3.08;;
71038;SDS011;58692;43.212;27.908;2022-12-11T10:16:56;15.10;;;3.30;;
71038;SDS011;58692;43.212;27.908;2022-12-11T10:19:29;13.83;;;2.80;;
71038;SDS011;58692;43.212;27.908;2022-12-11T10:21:56;16.63;;;3.50;;
71038;SDS011;58692;43.212;27.908;2022-12-11T10:24:28;14.95;;;3.65;;
71038;SDS011;58692;43.212;27.908;2022-12-11T10:26:57;9.80;;;3.15;;
71038;SDS011;58692;43.212;27.908;2022-12-11T10:29:26;12.32;;;3.65;;
71038;SDS011;58692;43.212;27.908;2022-12-11T10:31:54;12.90;;;3.83;;
71038;SDS011;58692;43.212;27.908;2022-12-11T10:34:32;17.88;;;3.92;;
71038;SDS011;58692;43.212;27.908;2022-12-11T10:37:01;13.85;;;2.78;;
71038;SDS011;58692;43.212;27.908;2022-12-11T10:39:27;12.60;;;3.58;;
71038;SDS011;58692;43.212;27.908;2022-12-11T10:41:54;11.87;;;3.83;;
71038;SDS011;58692;43.212;27.908;2022-12-11T10:44:25;16.20;;;3.90;;
71038;SDS011;58692;43.212;27.908;2022-12-11T10:47:04;11.75;;;3.92;;
71038;SDS011;58692;43.212;27.908;2022-12-11T10:49:35;12.38;;;3.38;;
71038;SDS011;58692;43.212;27.908;2022-12-11T10:54:46;13.67;;;3.00;;
71038;SDS011;58692;43.212;27.908;2022-12-11T10:57:25;13.10;;;3.50;;
71038;SDS011;58692;43.212;27.908;2022-12-11T11:00:00;14.05;;;3.28;;
71038;SDS011;58692;43.212;27.908;2022-12-11T11:02:30;12.38;;;3.40;;
71038;SDS011;58692;43.212;27.908;2022-12-11T11:05:00;14.27;;;3.85;;
71038;SDS011;58692;43.212;27.908;2022-12-11T11:07:51;14.17;;;2.93;;
71038;SDS011;58692;43.212;27.908;2022-12-11T11:10:35;14.02;;;3.30;;
71038;SDS011;58692;43.212;27.908;2022-12-11T11:13:01;12.73;;;3.30;;
71038;SDS011;58692;43.212;27.908;2022-12-11T11:15:27;14.33;;;3.33;;
71038;SDS011;58692;43.212;27.908;2022-12-11T11:17:55;16.70;;;3.78;;
71038;SDS011;58692;43.212;27.908;2022-12-11T11:20:25;16.90;;;3.70;;
71038;SDS011;58692;43.212;27.908;2022-12-11T11:22:54;19.08;;;3.42;;
71038;SDS011;58692;43.212;27.908;2022-12-11T11:25:22;22.50;;;3.85;;
71038;SDS011;58692;43.212;27.908;2022-12-11T11:27:51;17.97;;;3.47;;
71038;SDS011;58692;43.212;27.908;2022-12-11T11:32:48;16.58;;;3.70;;
71038;SDS011;58692;43.212;27.908;2022-12-11T11:35:18;22.48;;;4.38;;
71038;SDS011;58692;43.212;27.908;2022-12-11T11:37:52;17.67;;;4.10;;
71038;SDS011;58692;43.212;27.908;2022-12-11T11:40:24;16.33;;;3.60;;
71038;SDS011;58692;43.212;27.908;2022-12-11T11:45:43;19.63;;;3.38;;
71038;SDS011;58692;43.212;27.908;2022-12-11T11:48:34;25.83;;;5.38;;
71038;SDS011;58692;43.212;27.908;2022-12-11T11:51:12;24.80;;;6.65;;
71038;SDS011;58692;43.212;27.908;2022-12-11T11:53:47;25.87;;;6.83;;
71038;SDS011;58692;43.212;27.908;2022-12-11T11:56:18;22.90;;;6.75;;
71038;SDS011;58692;43.212;27.908;2022-12-11T11:58:51;26.85;;;6.68;;
71038;SDS011;58692;43.212;27.908;2022-12-11T12:01:23;28.77;;;7.25;;
71038;SDS011;58692;43.212;27.908;2022-12-11T12:03:49;25.58;;;7.20;;
71038;SDS011;58692;43.212;27.908;2022-12-11T12:17:49;28.67;;;7.00;;
71038;SDS011;58692;43.212;27.908;2022-12-11T12:20:18;23.67;;;6.73;;
71038;SDS011;58692;43.212;27.908;2022-12-11T12:28:10;24.80;;;5.80;;
71038;SDS011;58692;43.212;27.908;2022-12-11T12:33:46;26.60;;;8.10;;
71038;SDS011;58692;43.212;27.908;2022-12-11T12:39:24;24.98;;;4.70;;
71038;SDS011;58692;43.212;27.908;2022-12-11T12:44:41;24.02;;;5.68;;
71038;SDS011;58692;43.212;27.908;2022-12-11T12:47:12;21.40;;;5.40;;
71038;SDS011;58692;43.212;27.908;2022-12-11T12:49:45;24.75;;;5.40;;
71038;SDS011;58692;43.212;27.908;2022-12-11T12:54:58;24.67;;;6.05;;
71038;SDS011;58692;43.212;27.908;2022-12-11T12:57:41;20.08;;;4.45;;
71038;SDS011;58692;43.212;27.908;2022-12-11T13:00:12;22.23;;;5.07;;
71038;SDS011;58692;43.212;27.908;2022-12-11T13:02:50;21.08;;;5.13;;
71038;SDS011;58692;43.212;27.908;2022-12-11T13:05:20;23.17;;;5.25;;
71038;SDS011;58692;43.212;27.908;2022-12-11T13:07:51;19.52;;;5.95;;
71038;SDS011;58692;43.212;27.908;2022-12-11T13:10:21;19.65;;;4.82;;
71038;SDS011;58692;43.212;27.908;2022-12-11T13:12:50;22.93;;;5.93;;
71038;SDS011;58692;43.212;27.908;2022-12-11T13:15:26;21.45;;;5.68;;
71038;SDS011;58692;43.212;27.908;2022-12-11T13:17:54;17.42;;;5.50;;
71038;SDS011;58692;43.212;27.908;2022-12-11T13:20:21;22.52;;;5.32;;
71038;SDS011;58692;43.212;27.908;2022-12-11T13:22:51;19.58;;;5.47;;
71038;SDS011;58692;43.212;27.908;2022-12-11T13:25:22;22.57;;;6.20;;
71038;SDS011;58692;43.212;27.908;2022-12-11T13:27:51;23.70;;;5.75;;
71038;SDS011;58692;43.212;27.908;2022-12-11T13:30:20;24.08;;;6.90;;
71038;SDS011;58692;43.212;27.908;2022-12-11T13:32:58;25.70;;;5.72;;
71038;SDS011;58692;43.212;27.908;2022-12-11T13:35:38;21.90;;;5.67;;
71038;SDS011;58692;43.212;27.908;2022-12-11T13:38:06;28.25;;;6.22;;
71038;SDS011;58692;43.212;27.908;2022-12-11T13:40:39;25.85;;;6.63;;
71038;SDS011;58692;43.212;27.908;2022-12-11T13:43:14;28.73;;;6.53;;
71038;SDS011;58692;43.212;27.908;2022-12-11T13:48:14;25.17;;;7.13;;
71038;SDS011;58692;43.212;27.908;2022-12-11T13:50:45;24.98;;;6.22;;
71038;SDS011;58692;43.212;27.908;2022-12-11T13:53:13;23.90;;;6.30;;
71038;SDS011;58692;43.212;27.908;2022-12-11T13:55:40;20.70;;;5.80;;
71038;SDS011;58692;43.212;27.908;2022-12-11T14:03:32;23.63;;;5.90;;
71038;SDS011;58692;43.212;27.908;2022-12-11T14:05:59;20.90;;;5.28;;
71038;SDS011;58692;43.212;27.908;2022-12-11T14:08:31;28.23;;;5.65;;
71038;SDS011;58692;43.212;27.908;2022-12-11T14:10:59;26.42;;;5.05;;
71038;SDS011;58692;43.212;27.908;2022-12-11T14:13:26;29.17;;;5.70;;
71038;SDS011;58692;43.212;27.908;2022-12-11T14:15:57;23.35;;;4.85;;
71038;SDS011;58692;43.212;27.908;2022-12-11T14:18:23;35.60;;;10.23;;
71038;SDS011;58692;43.212;27.908;2022-12-11T14:20:52;27.43;;;7.40;;
71038;SDS011;58692;43.212;27.908;2022-12-11T14:23:22;34.10;;;9.77;;
71038;SDS011;58692;43.212;27.908;2022-12-11T14:25:59;33.75;;;9.25;;
71038;SDS011;58692;43.212;27.908;2022-12-11T14:28:27;27.52;;;7.72;;
71038;SDS011;58692;43.212;27.908;2022-12-11T14:30:59;24.10;;;6.22;;
71038;SDS011;58692;43.212;27.908;2022-12-11T14:33:27;24.30;;;5.00;;
71038;SDS011;58692;43.212;27.908;2022-12-11T14:35:57;25.27;;;6.38;;
71038;SDS011;58692;43.212;27.908;2022-12-11T14:38:26;23.88;;;5.10;;
71038;SDS011;58692;43.212;27.908;2022-12-11T14:40:57;22.63;;;5.35;;
71038;SDS011;58692;43.212;27.908;2022-12-11T14:43:30;24.98;;;5.40;;
71038;SDS011;58692;43.212;27.908;2022-12-11T14:46:01;21.23;;;5.60;;
71038;SDS011;58692;43.212;27.908;2022-12-11T14:48:36;28.40;;;6.10;;
71038;SDS011;58692;43.212;27.908;2022-12-11T14:51:09;21.98;;;6.00;;
71038;SDS011;58692;43.212;27.908;2022-12-11T14:53:41;27.80;;;6.93;;
71038;SDS011;58692;43.212;27.908;2022-12-11T14:56:14;21.73;;;6.13;;
71038;SDS011;58692;43.212;27.908;2022-12-11T14:58:46;28.77;;;6.43;;
71038;SDS011;58692;43.212;27.908;2022-12-11T15:01:22;24.92;;;5.47;;
71038;SDS011;58692;43.212;27.908;2022-12-11T15:04:00;32.92;;;8.30;;
71038;SDS011;58692;43.212;27.908;2022-12-11T15:06:28;30.13;;;6.38;;
71038;SDS011;58692;43.212;27.908;2022-12-11T15:09:08;26.42;;;5.82;;
71038;SDS011;58692;43.212;27.908;2022-12-11T15:11:49;27.67;;;5.70;;
71038;SDS011;58692;43.212;27.908;2022-12-11T15:14:17;24.27;;;5.95;;
71038;SDS011;58692;43.212;27.908;2022-12-11T15:16:43;25.95;;;5.32;;
71038;SDS011;58692;43.212;27.908;2022-12-11T15:21:51;20.27;;;5.10;;
71038;SDS011;58692;43.212;27.908;2022-12-11T15:24:27;22.10;;;5.13;;
71038;SDS011;58692;43.212;27.908;2022-12-11T15:27:00;25.65;;;4.43;;
71038;SDS011;58692;43.212;27.908;2022-12-11T15:29:31;21.77;;;4.88;;
71038;SDS011;58692;43.212;27.908;2022-12-11T15:32:02;18.67;;;4.60;;
71038;SDS011;58692;43.212;27.908;2022-12-11T15:37:19;22.90;;;4.97;;
71038;SDS011;58692;43.212;27.908;2022-12-11T15:39:50;21.73;;;4.05;;